Time;durP1;ratioP1;P1;durP2;ratioP2;P2;SDS_P1;SDS_P2;PMS_P1;PMS_P2;Temp;Humidity;BMP_temperature;BMP_pressure;BME280_temperature;BME280_humidity;BME280_pressure;Samples;Min_cycle;Max_cycle;Signal;HPM_P1;HPM_P2
2022/06/03 00:02:18;;;;;;;3.50;2.47;;;11.60;99.90;;;;;;5048814;28;20044;-68
2022/06/03 00:05:12;;;;;;;5.80;2.70;;;11.50;99.90;;;;;;5044246;28;20134;-67
2022/06/03 00:08:08;;;;;;;4.60;2.50;;;11.60;99.90;;;;;;5065010;28;20052;-67
2022/06/03 00:10:51;;;;;;;3.78;2.40;;;11.60;99.90;;;;;;5061310;28;20040;-67
2022/06/03 00:13:36;;;;;;;5.85;2.25;;;11.50;99.90;;;;;;5052102;28;20576;-68
2022/06/03 00:16:13;;;;;;;5.85;2.78;;;11.50;99.90;;;;;;5062707;28;20036;-67
2022/06/03 00:18:57;;;;;;;;;;;11.50;99.90;;;;;;5061860;28;20071;-67
2022/06/03 00:21:29;;;;;;;6.50;2.13;;;11.50;99.90;;;;;;5063328;28;19922;-67
2022/06/03 00:24:20;;;;;;;6.28;2.42;;;11.50;99.90;;;;;;5042005;28;20048;-67
2022/06/03 00:27:07;;;;;;;3.55;2.20;;;11.50;99.90;;;;;;5063111;28;20043;-67
2022/06/03 00:29:58;;;;;;;7.28;2.35;;;11.40;99.90;;;;;;5044302;28;20296;-68
2022/06/03 00:32:53;;;;;;;6.15;2.50;;;11.40;99.90;;;;;;5042478;28;20036;-67
2022/06/03 00:35:39;;;;;;;3.75;2.40;;;11.50;99.90;;;;;;5049750;28;20045;-67
2022/06/03 00:38:42;;;;;;;8.50;2.72;;;11.40;99.90;;;;;;5064884;28;20312;-67
2022/06/03 00:41:48;;;;;;;9.52;2.58;;;11.40;99.90;;;;;;5041781;28;20536;-67
2022/06/03 00:44:41;;;;;;;6.88;2.30;;;11.40;99.90;;;;;;5047371;28;20450;-69
2022/06/03 00:47:29;;;;;;;5.82;2.35;;;11.30;99.90;;;;;;5059338;28;26822;-67
2022/06/03 00:50:29;;;;;;;5.60;2.28;;;11.20;99.90;;;;;;5059935;28;20046;-69
2022/06/03 00:53:56;;;;;;;5.22;2.33;;;11.20;99.90;;;;;;5040877;28;20059;-67
2022/06/03 00:56:42;;;;;;;6.07;2.40;;;11.20;99.90;;;;;;5015806;28;20052;-68
2022/06/03 00:59:14;;;;;;;4.30;2.50;;;11.20;99.90;;;;;;5046640;28;20492;-67
2022/06/03 01:02:08;;;;;;;5.78;3.47;;;11.20;99.90;;;;;;5049420;28;20040;-67
2022/06/03 01:04:46;;;;;;;6.45;3.72;;;11.20;99.90;;;;;;5060946;28;20086;-68
2022/06/03 01:07:32;;;;;;;4.80;2.97;;;11.20;99.90;;;;;;5047223;28;20048;-67
2022/06/03 01:10:22;;;;;;;3.70;2.10;;;11.20;99.90;;;;;;5066072;28;20043;-68
2022/06/03 01:12:57;;;;;;;5.15;2.85;;;11.20;99.90;;;;;;5037926;28;20451;-67
2022/06/03 01:15:41;;;;;;;4.93;2.92;;;11.10;99.90;;;;;;5062858;28;20044;-68
2022/06/03 01:18:30;;;;;;;4.70;2.58;;;11.10;99.90;;;;;;5049974;28;20119;-67
2022/06/03 01:21:04;;;;;;;6.70;3.30;;;11.10;99.90;;;;;;5050370;28;20374;-68
2022/06/03 01:23:59;;;;;;;5.38;2.65;;;11.00;99.90;;;;;;5045093;28;20048;-68
2022/06/03 01:26:50;;;;;;;4.55;2.67;;;11.00;99.90;;;;;;5058879;28;20040;-68
2022/06/03 01:29:34;;;;;;;4.35;2.75;;;11.00;99.90;;;;;;5031075;28;20047;-67
2022/06/03 01:32:21;;;;;;;4.47;3.15;;;11.00;99.90;;;;;;5044210;28;20492;-68
2022/06/03 01:35:05;;;;;;;5.40;3.03;;;11.00;99.90;;;;;;5110941;22;20132;-72
2022/06/03 01:37:49;;;;;;;6.00;3.22;;;11.00;99.90;;;;;;5031625;28;20350;-71
2022/06/03 01:40:36;;;;;;;6.57;3.17;;;11.00;99.90;;;;;;5040919;28;20033;-71
2022/06/03 01:43:10;;;;;;;4.72;3.00;;;11.00;99.90;;;;;;5026352;28;20037;-71
2022/06/03 01:45:51;;;;;;;6.85;3.63;;;11.00;99.90;;;;;;5047538;28;20117;-71
2022/06/03 01:48:32;;;;;;;7.00;3.33;;;11.00;99.90;;;;;;5022936;28;20045;-72
2022/06/03 01:51:24;;;;;;;5.68;3.17;;;11.00;99.90;;;;;;5045844;28;20373;-72
2022/06/03 01:54:01;;;;;;;6.28;3.03;;;11.00;99.90;;;;;;5021146;28;20072;-71
2022/06/03 01:56:30;;;;;;;5.88;3.63;;;10.90;99.90;;;;;;5043615;28;20044;-71
2022/06/03 01:59:32;;;;;;;7.80;3.50;;;10.90;99.90;;;;;;5020977;28;20048;-72
2022/06/03 02:02:04;;;;;;;6.40;3.58;;;10.90;99.90;;;;;;5027223;28;20051;-72
2022/06/03 02:04:44;;;;;;;6.50;3.63;;;10.80;99.90;;;;;;5049102;28;20048;-72
2022/06/03 02:07:35;;;;;;;7.35;3.70;;;10.90;99.90;;;;;;5027663;28;20349;-72
2022/06/03 02:10:14;;;;;;;6.28;3.30;;;10.80;99.90;;;;;;5030194;28;20045;-72
2022/06/03 02:12:51;;;;;;;6.82;3.95;;;10.80;99.90;;;;;;5044401;28;20049;-72
2022/06/03 02:15:23;;;;;;;5.63;3.35;;;10.70;99.90;;;;;;5030332;28;20373;-72
2022/06/03 02:18:00;;;;;;;7.35;3.47;;;10.70;99.90;;;;;;5036637;28;20048;-72
2022/06/03 02:20:38;;;;;;;;;;;10.70;99.90;;;;;;5033591;28;20033;-72
2022/06/03 02:23:31;;;;;;;5.70;3.70;;;10.70;99.90;;;;;;5038809;28;20346;-72
2022/06/03 02:26:21;;;;;;;6.72;3.55;;;10.60;99.90;;;;;;5024057;28;20554;-72
2022/06/03 02:30:24;;;;;;;11.23;3.85;;;10.60;99.90;;;;;;5045709;28;20048;-72
2022/06/03 02:32:08;;;;;;;5.80;3.15;;;10.50;99.90;;;;;;5017152;28;20142;-72
2022/06/03 02:34:49;;;;;;;8.23;3.50;;;10.50;99.90;;;;;;5033530;28;20142;-72
2022/06/03 02:37:44;;;;;;;5.70;3.08;;;10.50;99.90;;;;;;5027979;28;20131;-72
2022/06/03 02:40:28;;;;;;;6.60;3.70;;;10.50;99.90;;;;;;5029667;28;20065;-72
2022/06/03 02:43:14;;;;;;;8.25;3.95;;;10.40;99.90;;;;;;5020782;28;20044;-72
2022/06/03 02:46:07;;;;;;;7.22;3.78;;;10.50;99.90;;;;;;5020866;28;20037;-72
2022/06/03 02:49:06;;;;;;;7.93;3.45;;;10.40;99.90;;;;;;5039273;28;20048;-72
2022/06/03 02:52:01;;;;;;;6.53;3.53;;;10.40;99.90;;;;;;5029373;28;20047;-72
2022/06/03 02:55:07;;;;;;;6.65;3.42;;;10.40;99.90;;;;;;5033684;28;20095;-72
2022/06/03 02:57:55;;;;;;;7.50;3.85;;;10.30;99.90;;;;;;5028841;28;20108;-72
2022/06/03 03:00:20;;;;;;;5.10;3.33;;;10.30;99.90;;;;;;5025352;28;20128;-72
2022/06/03 03:03:05;;;;;;;5.73;3.17;;;10.20;99.90;;;;;;5026433;28;20047;-72
2022/06/03 03:05:42;;;;;;;5.28;3.28;;;10.30;99.90;;;;;;5032046;28;20136;-72
2022/06/03 03:08:27;;;;;;;7.40;3.63;;;10.30;99.90;;;;;;5038065;28;20535;-72
2022/06/03 03:11:40;;;;;;;6.38;3.47;;;10.30;99.90;;;;;;5030613;28;20040;-71
2022/06/03 03:14:43;;;;;;;7.90;4.15;;;10.30;99.90;;;;;;5047907;28;20068;-71
2022/06/03 03:17:27;;;;;;;6.35;3.28;;;10.30;99.90;;;;;;5028608;28;20037;-71
2022/06/03 03:20:23;;;;;;;5.75;3.72;;;10.30;99.90;;;;;;5035116;28;20438;-72
2022/06/03 03:23:08;;;;;;;6.55;3.72;;;10.30;99.90;;;;;;5031817;28;20476;-72
2022/06/03 03:25:55;;;;;;;6.85;4.10;;;10.30;99.90;;;;;;5040006;28;20125;-72
2022/06/03 03:28:24;;;;;;;7.03;3.78;;;10.30;99.90;;;;;;5053131;28;20041;-72
2022/06/03 03:31:11;;;;;;;8.18;4.47;;;10.30;99.90;;;;;;5028245;28;20132;-72
2022/06/03 03:33:58;;;;;;;8.40;4.22;;;10.30;99.90;;;;;;5013958;28;20139;-72
2022/06/03 03:36:55;;;;;;;8.80;4.53;;;10.40;99.90;;;;;;5047507;28;20103;-72
2022/06/03 03:39:24;;;;;;;6.93;4.07;;;10.30;99.90;;;;;;5028794;28;20454;-71
2022/06/03 03:42:29;;;;;;;6.20;3.33;;;10.30;99.90;;;;;;5022516;28;20334;-71
2022/06/03 03:45:33;;;;;;;7.13;4.10;;;10.30;99.90;;;;;;5018093;28;20111;-71
2022/06/03 03:48:35;;;;;;;8.65;4.32;;;10.40;99.90;;;;;;5047617;28;20139;-71
2022/06/03 03:51:11;;;;;;;10.23;4.07;;;10.40;99.90;;;;;;5045421;28;20124;-71
2022/06/03 03:53:48;;;;;;;6.93;4.28;;;10.40;99.90;;;;;;5045896;28;20040;-71
2022/06/03 03:56:47;;;;;;;6.78;4.03;;;10.40;99.90;;;;;;5030451;28;20416;-71
2022/06/03 03:59:30;;;;;;;5.82;3.72;;;10.50;99.90;;;;;;5046435;28;20045;-72
2022/06/03 04:02:05;;;;;;;8.30;4.05;;;10.40;99.90;;;;;;5044641;28;20550;-72
2022/06/03 04:05:03;;;;;;;8.70;4.55;;;10.40;99.90;;;;;;5049553;28;20593;-72
2022/06/03 04:07:48;;;;;;;5.82;3.65;;;10.40;99.90;;;;;;5052438;28;20045;-72
2022/06/03 04:10:32;;;;;;;6.43;4.00;;;10.50;99.90;;;;;;5046654;28;20045;-72
2022/06/03 04:13:09;;;;;;;5.53;3.88;;;10.50;99.90;;;;;;5030873;28;20060;-72
2022/06/03 04:15:48;;;;;;;7.10;3.85;;;10.50;99.90;;;;;;5030420;28;20098;-72
2022/06/03 04:18:36;;;;;;;7.18;3.72;;;10.50;99.90;;;;;;5030165;28;20143;-71
2022/06/03 04:21:36;;;;;;;7.20;3.83;;;10.60;99.90;;;;;;5047156;28;20033;-71
2022/06/03 04:24:26;;;;;;;7.90;3.92;;;10.60;99.90;;;;;;5046062;28;20351;-71
2022/06/03 04:27:29;;;;;;;6.32;3.75;;;10.60;99.90;;;;;;5040955;28;20041;-71
2022/06/03 04:30:04;;;;;;;6.40;3.80;;;10.60;99.90;;;;;;5047168;28;20045;-71
2022/06/03 04:33:02;;;;;;;12.68;4.22;;;10.60;99.90;;;;;;5028791;28;20047;-72
2022/06/03 04:35:46;;;;;;;5.55;3.40;;;10.60;99.90;;;;;;5024914;28;20419;-72
2022/06/03 04:38:37;;;;;;;7.95;3.53;;;10.70;99.90;;;;;;5028521;28;20163;-72
2022/06/03 04:41:24;;;;;;;7.28;3.65;;;10.70;99.90;;;;;;5039595;28;22144;-71
2022/06/03 04:44:23;;;;;;;6.63;3.83;;;10.70;99.90;;;;;;5042438;28;20459;-71
2022/06/03 04:47:23;;;;;;;6.32;3.63;;;10.70;99.90;;;;;;5034099;28;20135;-71
2022/06/03 04:50:26;;;;;;;6.55;3.58;;;10.80;99.90;;;;;;5042841;28;20646;-71
2022/06/03 04:53:17;;;;;;;6.28;3.55;;;10.90;99.90;;;;;;5020035;28;20115;-71
2022/06/03 04:56:01;;;;;;;8.52;3.45;;;10.90;99.90;;;;;;5041387;28;20037;-71
2022/06/03 04:58:42;;;;;;;10.57;4.05;;;10.90;99.90;;;;;;5047950;28;20060;-72
2022/06/03 05:01:25;;;;;;;6.05;3.83;;;11.00;99.90;;;;;;5022952;28;20045;-72
2022/06/03 05:04:35;;;;;;;5.38;3.33;;;11.00;99.90;;;;;;5046495;28;20056;-72
2022/06/03 05:07:22;;;;;;;5.15;3.08;;;11.10;99.90;;;;;;5026652;28;20300;-72
2022/06/03 05:10:45;;;;;;;6.55;3.58;;;11.10;99.90;;;;;;5040657;28;20525;-72
2022/06/03 05:13:42;;;;;;;7.65;3.45;;;11.20;99.90;;;;;;4974020;28;20360;-71
2022/06/03 05:16:43;;;;;;;6.13;3.65;;;11.20;99.90;;;;;;4963578;28;20285;-71
2022/06/03 05:19:20;;;;;;;5.63;3.10;;;11.30;99.90;;;;;;4991333;28;20060;-72
2022/06/03 05:22:46;;;;;;;6.18;3.50;;;11.40;99.90;;;;;;5046453;28;20048;-71
2022/06/03 05:25:24;;;;;;;7.82;3.20;;;11.40;99.90;;;;;;4992537;28;20048;-71
2022/06/03 05:28:02;;;;;;;8.40;3.40;;;11.40;99.90;;;;;;5006605;28;20568;-71
2022/06/03 05:30:58;;;;;;;5.28;3.25;;;11.40;99.90;;;;;;5031256;28;20053;-71
2022/06/03 05:33:47;;;;;;;9.85;3.70;;;11.40;99.90;;;;;;5041261;28;20033;-71
2022/06/03 05:36:24;;;;;;;5.80;2.50;;;11.50;99.90;;;;;;5027072;28;20053;-71
2022/06/03 05:39:14;;;;;;;5.28;3.28;;;11.60;99.90;;;;;;5047379;28;20051;-71
2022/06/03 05:45:27;;;;;;;5.07;3.22;;;11.70;99.90;;;;;;5039132;28;20078;-71
2022/06/03 05:48:02;;;;;;;5.72;3.00;;;11.70;99.90;;;;;;5002362;28;20053;-71
2022/06/03 05:50:51;;;;;;;6.68;3.38;;;11.80;99.90;;;;;;5044954;28;20120;-71
2022/06/03 05:53:44;;;;;;;5.93;3.20;;;11.80;99.90;;;;;;5021914;28;20048;-71
2022/06/03 05:56:29;;;;;;;6.03;2.83;;;11.90;99.90;;;;;;5027349;28;20051;-71
2022/06/03 05:59:00;;;;;;;8.07;3.03;;;12.10;99.90;;;;;;5027170;28;20041;-71
2022/06/03 06:01:57;;;;;;;5.72;2.80;;;12.10;99.90;;;;;;5038552;28;20398;-71
2022/06/03 06:04:45;;;;;;;5.22;2.38;;;12.10;99.90;;;;;;5042744;28;20041;-71
2022/06/03 06:07:17;;;;;;;6.72;3.35;;;12.20;99.90;;;;;;5047235;28;20087;-71
2022/06/03 06:10:05;;;;;;;4.32;2.42;;;12.20;99.90;;;;;;5023717;28;20120;-71
2022/06/03 06:12:49;;;;;;;5.45;2.75;;;12.30;99.90;;;;;;5013975;28;20131;-71
2022/06/03 06:15:52;;;;;;;3.95;2.35;;;12.40;99.90;;;;;;5025689;28;20049;-71
2022/06/03 06:18:30;;;;;;;3.53;2.13;;;12.40;99.90;;;;;;5036573;28;20045;-75
2022/06/03 06:21:13;;;;;;;4.85;1.90;;;12.50;99.90;;;;;;5038004;28;20064;-71
2022/06/03 06:23:46;;;;;;;4.95;2.05;;;12.60;99.90;;;;;;5034212;28;20049;-71
2022/06/03 06:26:21;;;;;;;3.90;2.10;;;12.70;99.90;;;;;;5044713;28;20047;-71
2022/06/03 06:28:59;;;;;;;4.20;1.80;;;12.80;99.90;;;;;;5028257;28;20045;-73
2022/06/03 06:31:36;;;;;;;2.63;1.50;;;12.80;99.90;;;;;;5019932;28;20549;-77
2022/06/03 06:34:32;;;;;;;2.85;1.40;;;12.90;99.90;;;;;;5029088;28;20041;-75
2022/06/03 06:37:03;;;;;;;2.85;1.58;;;12.90;99.90;;;;;;5049677;28;20087;-71
2022/06/03 06:39:45;;;;;;;4.60;1.88;;;13.00;99.90;;;;;;5045814;28;20055;-71
2022/06/03 06:42:35;;;;;;;4.82;2.15;;;13.10;99.90;;;;;;5044300;28;20053;-71
2022/06/03 06:45:10;;;;;;;3.50;1.60;;;13.20;99.90;;;;;;5017375;28;20085;-71
2022/06/03 06:47:47;;;;;;;2.20;1.25;;;13.30;99.90;;;;;;5027974;28;20539;-71
2022/06/03 06:50:19;;;;;;;2.53;1.45;;;13.40;99.90;;;;;;5039443;28;20116;-71
2022/06/03 06:52:54;;;;;;;3.35;1.52;;;13.40;99.90;;;;;;5045045;28;20048;-71
2022/06/03 06:55:28;;;;;;;2.17;1.40;;;13.50;99.90;;;;;;5031454;28;20049;-71
2022/06/03 06:57:58;;;;;;;5.47;1.60;;;13.60;99.90;;;;;;5046335;28;20440;-71
2022/06/03 07:00:28;;;;;;;3.65;1.52;;;13.70;99.90;;;;;;5052640;28;20036;-72
2022/06/03 07:03:04;;;;;;;3.97;1.50;;;13.80;99.90;;;;;;5035613;28;20131;-71
2022/06/03 07:05:55;;;;;;;2.10;1.38;;;13.80;99.90;;;;;;5051008;28;20037;-71
2022/06/03 07:08:28;;;;;;;3.08;1.20;;;13.90;99.90;;;;;;5050933;28;20049;-72
2022/06/03 07:11:05;;;;;;;3.42;1.80;;;14.00;99.90;;;;;;5022765;28;20056;-72
2022/06/03 07:13:57;;;;;;;1.83;1.15;;;14.10;99.90;;;;;;5047667;28;20520;-71
2022/06/03 07:19:48;;;;;;;2.53;1.40;;;14.30;99.90;;;;;;5054557;28;20048;-71
2022/06/03 07:22:26;;;;;;;2.78;1.40;;;14.30;99.90;;;;;;5017078;28;20087;-71
2022/06/03 07:25:01;;;;;;;2.47;1.42;;;14.40;99.90;;;;;;5048666;28;20397;-71
2022/06/03 07:27:55;;;;;;;3.45;1.33;;;14.50;99.90;;;;;;5050926;28;20377;-71
2022/06/03 07:30:45;;;;;;;2.78;1.42;;;14.60;99.90;;;;;;5050024;28;20339;-71
2022/06/03 07:36:24;;;;;;;2.95;1.17;;;14.80;99.90;;;;;;5032192;28;20057;-68
2022/06/03 07:38:57;;;;;;;4.10;1.30;;;14.90;99.90;;;;;;5046869;28;20052;-67
2022/06/03 07:41:39;;;;;;;1.92;0.93;;;15.00;99.90;;;;;;5029162;28;20041;-67
2022/06/03 07:44:15;;;;;;;3.63;1.15;;;15.10;99.90;;;;;;5038237;28;20098;-68
2022/06/03 07:46:53;;;;;;;2.72;1.10;;;15.20;99.90;;;;;;5033529;28;20053;-67
2022/06/03 07:49:22;;;;;;;2.45;1.33;;;15.30;99.90;;;;;;5048172;28;20228;-67
2022/06/03 07:51:52;;;;;;;5.60;0.93;;;15.40;99.90;;;;;;5046015;28;20032;-67
2022/06/03 07:54:34;;;;;;;2.05;0.98;;;15.50;99.90;;;;;;5027947;28;20596;-68
2022/06/03 07:57:10;;;;;;;1.83;0.98;;;15.60;99.90;;;;;;5031092;28;20119;-67
2022/06/03 07:59:39;;;;;;;2.80;0.90;;;15.70;99.90;;;;;;5008045;28;20047;-67
2022/06/03 08:02:11;;;;;;;1.52;0.85;;;15.80;99.90;;;;;;5021982;28;20044;-67
2022/06/03 08:04:38;;;;;;;2.22;0.90;;;15.80;99.90;;;;;;5025398;28;20041;-67
2022/06/03 08:12:58;;;;;;;1.80;1.08;;;16.10;99.90;;;;;;5027236;28;20052;-68
2022/06/03 08:15:28;;;;;;;2.65;1.10;;;16.20;99.90;;;;;;5007386;28;20444;-68
2022/06/03 08:17:55;;;;;;;1.38;0.70;;;16.30;99.90;;;;;;5037403;28;21097;-67
2022/06/03 08:20:25;;;;;;;1.33;0.73;;;16.30;99.90;;;;;;5042801;28;20387;-68
2022/06/03 08:22:53;;;;;;;1.85;1.10;;;16.40;99.90;;;;;;5043622;28;20037;-68
2022/06/03 08:25:24;;;;;;;1.65;0.98;;;16.50;99.90;;;;;;5030188;28;20115;-67
2022/06/03 08:27:51;;;;;;;1.92;0.95;;;16.60;99.90;;;;;;5028672;28;20044;-68
2022/06/03 08:30:23;;;;;;;1.75;1.10;;;16.60;99.90;;;;;;5036717;28;20076;-68
2022/06/03 08:32:56;;;;;;;1.48;0.90;;;16.70;99.90;;;;;;5037888;28;20054;-67
2022/06/03 08:35:25;;;;;;;4.68;0.90;;;16.80;99.90;;;;;;5040781;28;20116;-68
2022/06/03 08:38:13;;;;;;;2.17;1.00;;;16.80;99.90;;;;;;5031464;28;20506;-68
2022/06/03 08:41:14;;;;;;;2.45;1.08;;;17.00;99.90;;;;;;5027666;28;20040;-68
2022/06/03 08:44:06;;;;;;;2.50;1.08;;;17.10;99.90;;;;;;5028541;28;20037;-68
2022/06/03 08:46:58;;;;;;;2.22;0.93;;;17.10;99.90;;;;;;5036619;28;20211;-68
2022/06/03 08:49:29;;;;;;;2.08;1.02;;;17.20;99.90;;;;;;5024843;28;20046;-68
2022/06/03 08:52:03;;;;;;;2.38;0.60;;;17.20;99.90;;;;;;5034108;28;20050;-68
2022/06/03 08:54:44;;;;;;;3.20;1.33;;;17.40;99.90;;;;;;5021583;28;20069;-67
2022/06/03 08:57:33;;;;;;;1.30;0.77;;;17.40;99.90;;;;;;5036155;28;20028;-68
2022/06/03 09:00:09;;;;;;;2.53;1.10;;;17.50;99.90;;;;;;5024371;28;20329;-68
2022/06/03 09:02:53;;;;;;;2.97;0.82;;;17.60;99.90;;;;;;5021286;28;20071;-68
2022/06/03 09:05:29;;;;;;;1.65;0.85;;;17.70;99.90;;;;;;5030015;28;20052;-68
2022/06/03 09:08:29;;;;;;;1.77;1.10;;;17.80;99.90;;;;;;5039790;28;20528;-69
2022/06/03 09:11:03;;;;;;;2.13;0.90;;;17.80;99.90;;;;;;5017772;28;20044;-68
2022/06/03 09:13:51;;;;;;;3.42;0.95;;;18.00;99.90;;;;;;5039068;28;20056;-68
2022/06/03 09:16:20;;;;;;;1.70;0.80;;;18.00;99.90;;;;;;5039339;28;20112;-69
2022/06/03 09:18:51;;;;;;;3.58;1.13;;;18.10;99.90;;;;;;5042931;28;20044;-68
2022/06/03 09:21:33;;;;;;;2.00;1.08;;;18.20;99.90;;;;;;5018878;28;20048;-68
2022/06/03 09:24:08;;;;;;;1.58;1.20;;;18.30;99.90;;;;;;5014717;28;20127;-68
2022/06/03 09:26:40;;;;;;;2.50;1.20;;;18.40;99.90;;;;;;5027396;28;20048;-68
2022/06/03 09:29:10;;;;;;;3.72;2.10;;;18.40;99.90;;;;;;5021747;28;20045;-68
2022/06/03 09:31:37;;;;;;;3.70;2.30;;;18.50;99.90;;;;;;5035622;28;20037;-68
2022/06/03 09:34:07;;;;;;;2.75;1.10;;;18.60;99.90;;;;;;5043242;28;20130;-68
2022/06/03 09:36:33;;;;;;;2.20;1.00;;;18.70;99.90;;;;;;5042081;28;20041;-68
2022/06/03 09:39:04;;;;;;;;;;;18.80;99.90;;;;;;5044840;28;20410;-68
2022/06/03 09:41:38;;;;;;;1.58;0.90;;;18.90;99.90;;;;;;5036120;28;19965;-68
2022/06/03 09:44:06;;;;;;;2.42;1.05;;;18.90;99.90;;;;;;5021895;28;20397;-69
2022/06/03 09:46:34;;;;;;;2.47;1.10;;;19.00;99.90;;;;;;5014446;28;20254;-68
2022/06/03 09:49:02;;;;;;;2.95;0.93;;;19.00;99.90;;;;;;5046912;28;20481;-68
2022/06/03 09:54:34;;;;;;;4.68;1.13;;;19.10;99.90;;;;;;5045566;28;20112;-68
2022/06/03 09:57:40;;;;;;;2.83;1.17;;;19.20;99.90;;;;;;5024141;28;20663;-68
2022/06/03 10:00:21;;;;;;;2.08;1.00;;;19.40;99.90;;;;;;4978439;28;20057;-68
2022/06/03 10:02:47;;;;;;;2.35;0.90;;;19.30;99.90;;;;;;4965199;28;20096;-68
2022/06/03 10:05:16;;;;;;;1.92;1.10;;;19.40;99.90;;;;;;5014474;28;20460;-68
2022/06/03 10:07:46;;;;;;;3.03;1.00;;;19.50;99.90;;;;;;5036367;28;20048;-74
2022/06/03 10:13:05;;;;;;;3.08;0.90;;;19.70;99.90;;;;;;5008442;28;21438;-72
2022/06/03 10:15:40;;;;;;;3.63;0.90;;;19.80;99.90;;;;;;5018529;28;20029;-71
2022/06/03 10:18:15;;;;;;;2.28;0.80;;;19.90;99.90;;;;;;5028919;28;20045;-70
2022/06/03 10:20:43;;;;;;;1.75;1.00;;;19.90;99.90;;;;;;5025255;28;20120;-70
2022/06/03 10:23:09;;;;;;;1.35;0.80;;;20.00;99.90;;;;;;5023271;28;20424;-70
2022/06/03 10:25:44;;;;;;;1.38;0.90;;;20.10;99.90;;;;;;5020190;28;20056;-70
2022/06/03 10:28:12;;;;;;;2.00;1.00;;;20.10;98.80;;;;;;5040940;28;20503;-70
2022/06/03 10:30:41;;;;;;;2.38;0.90;;;20.20;98.60;;;;;;5015167;28;20609;-68
2022/06/03 10:33:19;;;;;;;1.88;1.08;;;20.30;98.50;;;;;;5046074;28;20083;-69
2022/06/03 10:35:46;;;;;;;2.38;0.98;;;20.30;96.70;;;;;;5028705;28;20068;-69
2022/06/03 10:38:16;;;;;;;4.05;1.00;;;20.40;97.10;;;;;;5041885;28;20041;-68
2022/06/03 10:40:44;;;;;;;1.55;0.80;;;20.40;97.10;;;;;;5047681;28;20040;-70
2022/06/03 10:43:10;;;;;;;1.40;0.80;;;20.50;97.10;;;;;;5036777;28;20366;-72
2022/06/03 10:45:37;;;;;;;;;;;20.60;96.60;;;;;;5008399;28;20422;-69
2022/06/03 10:48:32;;;;;;;2.10;0.90;;;20.70;92.10;;;;;;5024319;28;19920;-72
2022/06/03 11:01:06;;;;;;;1.67;1.00;;;20.80;94.60;;;;;;5028841;28;20796;-74
2022/06/03 11:02:37;;;;;;;3.22;1.20;;;21.10;93.20;;;;;;5027909;28;20452;-69
2022/06/03 11:05:24;;;;;;;1.65;1.00;;;21.10;94.60;;;;;;5048482;28;20402;-69
2022/06/03 11:08:10;;;;;;;1.58;0.90;;;21.20;91.50;;;;;;5045675;28;20048;-69
2022/06/03 11:10:49;;;;;;;2.05;0.80;;;21.20;92.60;;;;;;5043743;28;20052;-69
2022/06/03 11:13:28;;;;;;;2.00;1.00;;;21.40;93.00;;;;;;5032233;28;20037;-69
2022/06/03 11:15:53;;;;;;;1.98;0.85;;;21.40;90.10;;;;;;5040092;28;20037;-68
2022/06/03 11:18:32;;;;;;;1.48;0.98;;;21.40;89.70;;;;;;5043583;28;20124;-69
2022/06/03 11:21:18;;;;;;;2.17;1.00;;;21.40;88.40;;;;;;5036720;28;20068;-68
2022/06/03 11:23:43;;;;;;;1.45;0.80;;;21.40;84.70;;;;;;5023705;28;21533;-69
2022/06/03 11:26:10;;;;;;;3.88;0.80;;;21.50;89.90;;;;;;5044704;28;20063;-68
2022/06/03 11:28:42;;;;;;;1.67;1.00;;;21.50;89.00;;;;;;5047935;28;20073;-68
2022/06/03 11:31:11;;;;;;;1.60;0.70;;;21.60;85.90;;;;;;5027465;28;20042;-69
2022/06/03 11:33:42;;;;;;;2.22;0.98;;;21.60;84.70;;;;;;5026578;28;20479;-69
2022/06/03 11:36:40;;;;;;;2.40;0.65;;;21.60;82.50;;;;;;5026554;28;20045;-69
2022/06/03 11:39:29;;;;;;;1.90;1.10;;;21.70;80.50;;;;;;5027500;28;20052;-69
2022/06/03 11:42:02;;;;;;;1.98;1.02;;;21.80;78.00;;;;;;5018377;28;21660;-68
2022/06/03 11:44:43;;;;;;;1.67;0.90;;;21.80;81.60;;;;;;5002020;28;20073;-69
2022/06/03 11:47:18;;;;;;;1.40;0.90;;;21.90;77.00;;;;;;5016491;28;20040;-69
2022/06/03 11:49:45;;;;;;;2.20;1.30;;;21.90;78.80;;;;;;5040508;28;20187;-69
2022/06/03 11:52:10;;;;;;;1.95;0.90;;;22.00;76.00;;;;;;5037592;28;20398;-69
2022/06/03 11:54:37;;;;;;;2.88;0.88;;;22.00;76.10;;;;;;5045579;28;20029;-69
2022/06/03 11:57:03;;;;;;;2.60;0.70;;;22.00;77.10;;;;;;5019052;28;20045;-69
2022/06/03 11:59:52;;;;;;;;;;;22.10;75.10;;;;;;5037613;28;20513;-68
2022/06/03 12:02:27;;;;;;;2.83;0.80;;;22.20;74.40;;;;;;5037400;28;19917;-69
2022/06/03 12:05:07;;;;;;;2.25;0.68;;;22.30;75.80;;;;;;5035922;28;20112;-69
2022/06/03 12:07:51;;;;;;;1.30;0.73;;;22.30;74.20;;;;;;5014248;28;20049;-68
2022/06/03 12:10:16;;;;;;;1.45;0.80;;;22.30;73.80;;;;;;5043560;28;20223;-69
2022/06/03 12:15:27;;;;;;;1.58;0.70;;;22.30;70.30;;;;;;5031575;28;19921;-69
2022/06/03 12:17:53;;;;;;;1.60;0.90;;;22.40;74.30;;;;;;5041919;28;20061;-69
2022/06/03 12:20:31;;;;;;;;;;;22.50;74.10;;;;;;5027581;28;20118;-68
2022/06/03 12:22:58;;;;;;;1.48;0.88;;;22.60;72.00;;;;;;5039329;28;20297;-69
2022/06/03 12:25:40;;;;;;;1.90;1.00;;;22.60;73.00;;;;;;5029429;28;20055;-69
2022/06/03 12:28:15;;;;;;;3.05;1.30;;;22.70;71.80;;;;;;5036270;28;20049;-69
2022/06/03 12:30:57;;;;;;;1.55;1.00;;;22.80;70.60;;;;;;5023017;28;20047;-69
2022/06/03 12:33:33;;;;;;;1.42;1.08;;;22.90;69.80;;;;;;5025253;28;20054;-70
2022/06/03 12:35:59;;;;;;;;;;;23.00;68.60;;;;;;5022688;28;20049;-69
2022/06/03 12:38:43;;;;;;;3.15;1.20;;;23.00;65.20;;;;;;5046135;28;20284;-69
2022/06/03 12:41:09;;;;;;;1.40;0.75;;;23.00;67.70;;;;;;5024175;28;20041;-69
2022/06/03 12:43:47;;;;;;;2.47;1.35;;;23.10;67.60;;;;;;5038548;28;20034;-69
2022/06/03 12:46:37;;;;;;;1.35;0.90;;;23.20;65.50;;;;;;5030366;28;20312;-69
2022/06/03 12:49:15;;;;;;;1.67;0.93;;;23.30;65.70;;;;;;5033585;28;20502;-69
2022/06/03 12:52:00;;;;;;;2.30;1.30;;;23.30;65.60;;;;;;5030396;28;20044;-69
2022/06/03 12:54:27;;;;;;;4.25;1.33;;;23.30;62.30;;;;;;5036772;28;20075;-69
2022/06/03 12:57:18;;;;;;;1.55;0.93;;;23.20;63.90;;;;;;5030199;28;20765;-69
2022/06/03 12:59:52;;;;;;;1.63;1.00;;;23.30;65.30;;;;;;4999320;28;20048;-68
2022/06/03 13:02:24;;;;;;;1.95;1.02;;;23.30;64.90;;;;;;5007909;28;20037;-69
2022/06/03 13:04:53;;;;;;;1.55;0.80;;;23.40;64.40;;;;;;5040469;28;20040;-69
2022/06/03 13:07:27;;;;;;;2.20;1.20;;;23.40;63.40;;;;;;5042115;28;20048;-69
2022/06/03 13:09:56;;;;;;;2.38;0.95;;;23.40;62.20;;;;;;5030486;28;20655;-69
2022/06/03 13:12:31;;;;;;;2.70;1.90;;;23.40;63.30;;;;;;5041491;28;20100;-69
2022/06/03 13:15:16;;;;;;;2.25;1.00;;;23.40;61.90;;;;;;5033023;28;20044;-69
2022/06/03 13:18:09;;;;;;;2.17;1.08;;;23.30;61.00;;;;;;5039699;28;20445;-69
2022/06/03 13:20:41;;;;;;;3.63;1.00;;;23.30;62.20;;;;;;5024255;28;20057;-69
2022/06/03 13:23:25;;;;;;;1.35;0.90;;;23.40;65.00;;;;;;5025611;28;20110;-69
2022/06/03 13:25:54;;;;;;;1.70;0.82;;;23.40;67.30;;;;;;5024799;28;20041;-69
2022/06/03 13:28:38;;;;;;;1.58;1.00;;;23.30;67.80;;;;;;5045605;28;20068;-69
2022/06/03 13:31:26;;;;;;;1.33;0.90;;;23.30;68.10;;;;;;5031336;28;20220;-69
2022/06/03 13:36:37;;;;;;;0.93;0.70;;;23.20;66.10;;;;;;5140215;22;20053;-70
2022/06/03 13:39:05;;;;;;;0.98;0.65;;;23.10;67.10;;;;;;5049754;28;20132;-70
2022/06/03 13:44:39;;;;;;;1.95;0.52;;;23.10;67.90;;;;;;5043654;28;20076;-69
2022/06/03 13:47:24;;;;;;;1.58;0.55;;;23.00;65.50;;;;;;5043995;28;20388;-70
2022/06/03 13:50:01;;;;;;;1.23;0.70;;;23.00;66.80;;;;;;5031547;28;20447;-70
2022/06/03 13:52:33;;;;;;;1.65;0.77;;;23.00;66.50;;;;;;5048077;28;20048;-70
2022/06/03 13:55:19;;;;;;;1.65;0.90;;;22.90;67.70;;;;;;5048392;28;20473;-69
2022/06/03 13:57:54;;;;;;;1.17;0.52;;;23.00;66.00;;;;;;5067028;28;20037;-69
2022/06/03 14:00:26;;;;;;;0.70;0.40;;;23.00;65.80;;;;;;5028433;28;20468;-70
2022/06/03 14:03:05;;;;;;;3.53;0.80;;;23.00;66.70;;;;;;5032334;28;20076;-70
2022/06/03 14:05:33;;;;;;;1.33;0.68;;;22.90;66.00;;;;;;5066400;28;20099;-70
2022/06/03 14:08:17;;;;;;;2.65;0.70;;;23.00;65.60;;;;;;5049052;28;20095;-70
2022/06/03 14:10:49;;;;;;;1.38;0.73;;;23.00;63.30;;;;;;5050734;28;20049;-70
2022/06/03 14:13:15;;;;;;;0.93;0.68;;;23.00;63.20;;;;;;5068846;28;20090;-70
2022/06/03 14:15:47;;;;;;;;;;;22.90;63.10;;;;;;5068992;28;20044;-70
2022/06/03 14:18:45;;;;;;;2.40;0.60;;;23.00;63.40;;;;;;5068550;28;20364;-70
2022/06/03 14:21:12;;;;;;;;;;;23.00;61.70;;;;;;5059216;28;20075;-70
2022/06/03 14:23:42;;;;;;;1.23;0.52;;;23.10;61.20;;;;;;5057662;28;19978;-70
2022/06/03 14:26:15;;;;;;;1.67;0.68;;;23.00;62.90;;;;;;5066683;28;20036;-69
2022/06/03 14:28:55;;;;;;;1.02;0.50;;;23.00;60.90;;;;;;5065849;28;20511;-70
2022/06/03 14:31:26;;;;;;;0.80;0.40;;;23.00;61.00;;;;;;5066369;28;20113;-69
2022/06/03 14:33:56;;;;;;;3.13;0.50;;;23.10;61.50;;;;;;5048426;28;20048;-69
2022/06/03 14:36:24;;;;;;;3.25;0.40;;;23.10;60.10;;;;;;5047878;28;20037;-70
2022/06/03 14:39:05;;;;;;;0.60;0.40;;;23.10;60.10;;;;;;5065846;28;20207;-69